Ana Sayfa
METAR-TAF:

METAR-TAF

Havaalanları :

Franklin Municipal-John Beverly Rose Airport

Franklin, Virginia, Amerika Birleşik Devletleri

Enlem: 36-42N, Boylam: 076-54W, yükseklik: 12 m

Güncel hava durumu gözlemi

Rapor saat 04:15 UTC de 5 dakika önce yapıldı.
Rüzgar güney/güneybatıdan 9 kt
Sıcaklık 17°C
Nem 100%
Basınç 1015 hPa
Görüş mesafesi: 16.1 km
1200 ft yükseklikte parçalı bulutlu

METAR: KFKN 100415Z AUTO 21009KT 10SM SCT012 17/17 A2996 RMK AO2 T01710168

Saat: 23:20 (04:20 UTC)


TAF: eksik

4.000'den fazla havaalanı için hava durumu gözlemleri ve tahminleri (METAR ve TAF raporları).

Kullanılabilir istasyonlar harita üzerinde sarı ve kırmızı noktalarla gösterilir.

İstasyonun adını görmek için fareyi noktanın üzerinde gezdirin.

Sonrasında hava gözlem ve tahminlerini görmek için tıklayın.

Haritayı değiştirmek için: yaklaştırmak için siyah artı işaretli yeşil düğmeye ve uzaklaştırmak için de eksi işaretli düğmeye hızla tıklayın; bitişik haritalar için yeşil okları kullanın.


METAR-TAF: